Time;durP1;ratioP1;P1;durP2;ratioP2;P2;SDS_P1;SDS_P2;PMS_P1;PMS_P2;Temp;Humidity;BMP_temperature;BMP_pressure;BME280_temperature;BME280_humidity;BME280_pressure;Samples;Min_cycle;Max_cycle;Signal;HPM_P1;HPM_P2
2022/08/21 00:01:13;;;;;;;2.10;1.83;;;17.20;99.90;;;;;;5084928;28;20635;-91
2022/08/21 00:03:42;;;;;;;2.70;1.90;;;17.30;99.90;;;;;;5082654;28;20632;-91
2022/08/21 00:06:09;;;;;;;2.70;1.70;;;17.00;99.90;;;;;;5087534;28;20647;-91
2022/08/21 00:08:36;;;;;;;2.00;1.80;;;17.10;99.90;;;;;;5084168;28;20608;-91
2022/08/21 00:11:04;;;;;;;2.90;2.00;;;17.00;99.90;;;;;;5081700;28;21016;-89
2022/08/21 00:13:31;;;;;;;2.13;1.57;;;17.20;99.90;;;;;;5086300;28;20616;-92
2022/08/21 00:15:59;;;;;;;2.53;2.33;;;17.30;99.90;;;;;;5082708;28;20760;-90
2022/08/21 00:18:26;;;;;;;1.93;1.77;;;17.40;99.90;;;;;;5087451;28;20624;-91
2022/08/21 00:20:54;;;;;;;2.80;1.90;;;17.50;99.90;;;;;;5090042;28;20623;-91
2022/08/21 00:23:21;;;;;;;2.50;2.30;;;17.20;99.90;;;;;;5091904;28;20639;-91
2022/08/21 00:25:48;;;;;;;2.23;2.03;;;16.90;99.90;;;;;;5087338;28;21058;-91
2022/08/21 00:28:15;;;;;;;3.97;2.20;;;16.60;99.90;;;;;;5090242;28;20647;-92
2022/08/21 00:30:43;;;;;;;2.23;2.03;;;16.40;99.90;;;;;;5089195;28;20616;-92
2022/08/21 00:33:10;;;;;;;1.80;1.70;;;16.30;99.90;;;;;;5090997;28;20624;-92
2022/08/21 00:35:40;;;;;;;2.40;2.20;;;16.90;99.90;;;;;;5088370;28;20756;-91
2022/08/21 00:38:09;;;;;;;3.10;2.27;;;16.80;99.90;;;;;;5088039;28;20647;-92
2022/08/21 00:40:41;;;;;;;2.67;2.10;;;16.60;99.90;;;;;;5084639;28;20632;-91
2022/08/21 00:43:11;;;;;;;2.90;1.70;;;16.40;99.90;;;;;;5082450;28;20630;-91
2022/08/21 00:45:39;;;;;;;3.77;2.20;;;16.30;99.90;;;;;;5081134;28;21127;-91
2022/08/21 00:48:06;;;;;;;2.47;1.87;;;16.00;99.90;;;;;;5086003;28;20656;-91
2022/08/21 00:50:36;;;;;;;2.03;1.93;;;15.90;99.90;;;;;;5090061;28;20632;-91
2022/08/21 00:53:05;;;;;;;2.10;2.00;;;16.10;99.90;;;;;;5089927;28;20624;-91
2022/08/21 00:55:36;;;;;;;3.73;1.97;;;16.20;99.90;;;;;;5088027;28;21217;-91
2022/08/21 00:58:06;;;;;;;2.30;2.00;;;16.00;99.90;;;;;;5086124;28;20651;-91
2022/08/21 01:00:38;;;;;;;4.13;2.37;;;15.80;99.90;;;;;;5089232;28;20636;-93
2022/08/21 01:03:09;;;;;;;2.80;2.10;;;15.70;99.90;;;;;;5084095;28;20647;-91
2022/08/21 01:05:37;;;;;;;2.70;2.33;;;16.10;99.90;;;;;;5084002;28;20604;-91
2022/08/21 01:08:04;;;;;;;3.57;2.13;;;15.90;99.90;;;;;;5085591;28;21284;-91
2022/08/21 01:10:33;;;;;;;2.60;2.40;;;16.20;99.90;;;;;;5082228;28;20644;-91
2022/08/21 01:13:02;;;;;;;2.60;2.20;;;16.30;99.90;;;;;;5086482;28;21231;-91
2022/08/21 01:15:34;;;;;;;3.07;2.30;;;16.00;99.90;;;;;;5089410;28;20845;-92
2022/08/21 01:18:01;;;;;;;2.70;2.43;;;15.90;99.90;;;;;;5080383;28;20724;-91
2022/08/21 01:20:28;;;;;;;2.43;2.00;;;15.90;99.90;;;;;;5082527;28;20631;-90
2022/08/21 01:22:56;;;;;;;3.50;2.50;;;16.10;99.90;;;;;;5081242;28;20708;-91
2022/08/21 01:25:23;;;;;;;2.40;2.20;;;16.20;99.90;;;;;;5081004;28;20620;-91
2022/08/21 01:27:50;;;;;;;2.50;2.30;;;16.00;99.90;;;;;;5082254;28;21016;-91
2022/08/21 01:30:21;;;;;;;2.40;2.30;;;15.80;99.90;;;;;;5088974;28;20619;-92
2022/08/21 01:32:49;;;;;;;2.73;2.53;;;15.60;99.90;;;;;;5089226;28;21024;-91
2022/08/21 01:35:18;;;;;;;2.67;2.47;;;15.40;99.90;;;;;;5089349;28;20660;-91
2022/08/21 01:37:45;;;;;;;3.43;2.30;;;15.20;99.90;;;;;;5094117;28;21236;-92
2022/08/21 01:40:18;;;;;;;2.27;2.10;;;15.50;99.90;;;;;;5084159;28;20620;-90
2022/08/21 01:42:45;;;;;;;3.77;2.43;;;15.70;99.90;;;;;;5085733;28;20615;-91
2022/08/21 01:45:13;;;;;;;4.80;2.67;;;15.50;99.90;;;;;;5086892;28;20631;-91
2022/08/21 01:47:41;;;;;;;6.00;2.30;;;15.50;99.90;;;;;;5084117;28;20647;-91
2022/08/21 01:50:12;;;;;;;2.53;2.33;;;15.40;99.90;;;;;;5091482;28;20628;-91
2022/08/21 01:52:40;;;;;;;3.67;2.60;;;15.30;99.90;;;;;;5091282;28;20630;-91
2022/08/21 01:55:08;;;;;;;5.90;2.77;;;15.10;99.90;;;;;;5086516;28;21074;-91
2022/08/21 01:57:37;;;;;;;4.10;2.50;;;15.40;99.90;;;;;;5089141;28;20663;-92
2022/08/21 02:00:06;;;;;;;2.60;2.30;;;15.30;99.90;;;;;;5092590;28;20616;-92
2022/08/21 02:02:33;;;;;;;2.67;2.47;;;15.20;99.90;;;;;;5093658;28;21076;-92
2022/08/21 02:05:01;;;;;;;5.37;2.83;;;15.20;99.90;;;;;;5090522;28;21022;-91
2022/08/21 02:07:28;;;;;;;5.17;2.47;;;15.10;99.90;;;;;;5090061;28;20716;-91
2022/08/21 02:09:55;;;;;;;3.73;2.53;;;15.10;99.90;;;;;;5092855;28;20612;-91
2022/08/21 02:12:22;;;;;;;2.60;2.40;;;15.00;99.90;;;;;;5086206;28;21222;-91
2022/08/21 02:14:50;;;;;;;6.07;2.50;;;15.10;99.90;;;;;;5083190;28;20669;-90
2022/08/21 02:17:17;;;;;;;3.00;2.80;;;15.00;99.90;;;;;;5088654;28;20666;-91
2022/08/21 02:19:45;;;;;;;3.20;2.90;;;15.00;99.90;;;;;;5088696;28;20629;-91
2022/08/21 02:22:12;;;;;;;2.70;2.50;;;15.00;99.90;;;;;;5089794;28;20623;-90
2022/08/21 02:24:40;;;;;;;2.90;2.60;;;15.00;99.90;;;;;;5082625;28;20634;-90
2022/08/21 02:27:07;;;;;;;3.40;3.00;;;14.80;99.90;;;;;;5086794;28;20683;-91
2022/08/21 02:29:33;;;;;;;2.90;2.70;;;14.60;99.90;;;;;;5091281;28;20632;-90
2022/08/21 02:32:02;;;;;;;3.00;2.70;;;14.50;99.90;;;;;;5104464;28;20655;-91
2022/08/21 02:34:28;;;;;;;4.57;2.80;;;14.50;99.90;;;;;;5106035;28;20642;-91
2022/08/21 02:36:55;;;;;;;3.67;2.27;;;14.60;99.90;;;;;;5109608;28;20691;-91
2022/08/21 02:39:22;;;;;;;3.50;2.60;;;14.60;99.90;;;;;;5108429;28;20639;-91
2022/08/21 02:41:49;;;;;;;2.73;2.50;;;14.50;99.90;;;;;;5105768;28;20659;-91
2022/08/21 02:44:16;;;;;;;3.33;2.63;;;14.40;99.90;;;;;;5105851;28;20636;-91
2022/08/21 02:46:43;;;;;;;4.07;3.03;;;14.40;99.90;;;;;;5101831;28;20627;-92
2022/08/21 02:49:11;;;;;;;4.20;2.70;;;14.50;99.90;;;;;;5111849;28;20632;-92
2022/08/21 02:51:37;;;;;;;3.03;2.67;;;14.40;99.90;;;;;;5109207;28;20634;-92
2022/08/21 02:54:04;;;;;;;3.27;2.50;;;14.40;99.90;;;;;;5113337;28;20629;-90
2022/08/21 02:56:31;;;;;;;4.63;3.00;;;14.40;99.90;;;;;;5113369;28;20668;-92
2022/08/21 02:58:58;;;;;;;3.20;2.57;;;14.40;99.90;;;;;;5116967;28;20684;-91
2022/08/21 03:01:25;;;;;;;3.47;3.00;;;14.80;99.90;;;;;;5114238;28;20628;-92
2022/08/21 03:03:53;;;;;;;3.90;2.67;;;14.80;99.90;;;;;;5117755;28;20623;-91
2022/08/21 03:06:24;;;;;;;3.60;2.63;;;14.70;99.90;;;;;;5116025;28;20658;-92
2022/08/21 03:08:51;;;;;;;3.33;2.87;;;14.60;99.90;;;;;;5095729;28;20620;-90
2022/08/21 03:11:18;;;;;;;3.40;3.10;;;14.50;99.90;;;;;;5092142;28;20628;-91
2022/08/21 03:13:45;;;;;;;8.83;3.10;;;14.60;99.90;;;;;;5092851;28;20657;-91
2022/08/21 03:16:12;;;;;;;3.40;3.00;;;14.50;99.90;;;;;;5092964;28;20679;-91
2022/08/21 03:18:39;;;;;;;4.10;2.60;;;14.40;99.90;;;;;;5092915;28;20624;-92
2022/08/21 03:21:07;;;;;;;5.63;3.63;;;14.40;99.90;;;;;;5089254;28;20630;-91
2022/08/21 03:23:39;;;;;;;4.43;4.03;;;14.50;99.90;;;;;;5089304;28;21432;-91
2022/08/21 03:26:06;;;;;;;6.23;3.77;;;14.40;99.90;;;;;;5086663;28;20723;-91
2022/08/21 03:28:33;;;;;;;4.10;3.30;;;14.30;99.90;;;;;;5085957;28;20632;-90
2022/08/21 03:31:00;;;;;;;4.03;3.67;;;14.20;99.90;;;;;;5086475;28;20625;-91
2022/08/21 03:33:27;;;;;;;3.73;3.17;;;14.10;99.90;;;;;;5083834;28;20987;-91
2022/08/21 03:36:00;;;;;;;3.57;3.27;;;14.30;99.90;;;;;;5082186;28;20652;-91
2022/08/21 03:38:28;;;;;;;4.00;3.40;;;14.50;99.90;;;;;;5089591;28;20697;-92
2022/08/21 03:40:57;;;;;;;3.73;3.00;;;14.40;99.90;;;;;;5087061;28;20636;-91
2022/08/21 03:43:24;;;;;;;3.30;3.10;;;14.20;99.90;;;;;;5091182;28;20955;-91
2022/08/21 03:45:51;;;;;;;3.20;3.00;;;14.10;99.90;;;;;;5084827;28;20627;-90
2022/08/21 03:48:18;;;;;;;4.90;3.27;;;14.30;99.90;;;;;;5084971;28;20628;-92
2022/08/21 03:50:46;;;;;;;8.13;3.23;;;14.80;99.90;;;;;;5085626;28;20642;-92
2022/08/21 03:53:15;;;;;;;2.80;2.60;;;14.80;99.90;;;;;;5087981;28;20632;-91
2022/08/21 03:55:42;;;;;;;3.60;2.87;;;14.60;99.90;;;;;;5084694;28;21045;-93
2022/08/21 03:58:10;;;;;;;3.63;3.33;;;14.40;99.90;;;;;;5086325;28;21061;-92
2022/08/21 04:00:39;;;;;;;3.20;3.00;;;14.30;99.90;;;;;;5088427;28;20620;-92
2022/08/21 04:03:06;;;;;;;2.83;2.63;;;14.20;99.90;;;;;;5087008;28;20671;-91
2022/08/21 04:05:33;;;;;;;7.83;3.67;;;14.50;99.90;;;;;;5084741;28;20991;-92
2022/08/21 04:08:03;;;;;;;4.93;3.47;;;14.30;99.90;;;;;;5089603;28;20656;-92
2022/08/21 04:10:32;;;;;;;3.33;3.03;;;14.20;99.90;;;;;;5089804;28;20620;-91
2022/08/21 04:12:59;;;;;;;3.53;3.23;;;14.00;99.90;;;;;;5090021;28;21272;-92
2022/08/21 04:15:29;;;;;;;3.80;3.40;;;14.00;99.90;;;;;;5089569;28;20671;-92
2022/08/21 04:17:56;;;;;;;3.30;2.80;;;13.80;99.90;;;;;;5091089;28;20651;-91
2022/08/21 04:20:24;;;;;;;4.00;3.80;;;14.00;99.90;;;;;;5089413;28;21205;-92
2022/08/21 04:22:51;;;;;;;6.77;3.40;;;14.00;99.90;;;;;;5084967;28;20689;-92
2022/08/21 04:25:20;;;;;;;5.20;3.50;;;13.90;99.90;;;;;;5088937;28;20628;-91
2022/08/21 04:27:47;;;;;;;4.20;3.50;;;13.90;99.90;;;;;;5085939;28;20645;-92
2022/08/21 04:30:16;;;;;;;3.53;3.20;;;13.90;99.90;;;;;;5091640;28;20983;-91
2022/08/21 04:32:46;;;;;;;4.10;3.23;;;13.80;99.90;;;;;;5087467;28;21056;-91
2022/08/21 04:35:14;;;;;;;3.60;3.30;;;13.80;99.90;;;;;;5087379;28;20616;-91
2022/08/21 04:37:41;;;;;;;3.60;3.20;;;14.00;99.90;;;;;;5083879;28;21192;-91
2022/08/21 04:40:10;;;;;;;6.47;3.83;;;13.90;99.90;;;;;;5086442;28;20632;-91
2022/08/21 04:42:44;;;;;;;4.63;3.30;;;13.80;99.90;;;;;;5105929;28;20703;-91
2022/08/21 04:45:15;;;;;;;4.67;3.30;;;13.70;99.90;;;;;;5084356;27;20681;-92
2022/08/21 04:47:43;;;;;;;3.53;3.23;;;13.70;99.90;;;;;;5088921;28;20660;-91
2022/08/21 04:50:10;;;;;;;3.30;3.00;;;13.70;99.90;;;;;;5081176;28;20643;-91
2022/08/21 04:52:37;;;;;;;3.80;3.50;;;13.70;99.90;;;;;;5087974;28;20632;-91
2022/08/21 04:55:05;;;;;;;5.40;3.43;;;13.80;99.90;;;;;;5083816;28;20634;-92
2022/08/21 04:57:32;;;;;;;3.13;2.93;;;13.70;99.90;;;;;;5089111;28;20672;-92
2022/08/21 04:59:59;;;;;;;3.50;3.20;;;13.70;99.90;;;;;;5089014;28;20616;-92
2022/08/21 05:02:26;;;;;;;6.67;3.33;;;13.80;99.90;;;;;;5086873;28;20987;-92
2022/08/21 05:04:56;;;;;;;3.73;3.37;;;13.70;99.90;;;;;;5079873;28;20633;-92
2022/08/21 05:07:26;;;;;;;4.07;3.87;;;13.70;99.90;;;;;;5090898;28;20674;-92
2022/08/21 05:09:54;;;;;;;3.50;3.20;;;13.80;99.90;;;;;;5090540;28;20624;-92
2022/08/21 05:12:21;;;;;;;3.83;3.53;;;13.80;99.90;;;;;;5107460;28;20652;-92
2022/08/21 05:14:48;;;;;;;3.67;3.47;;;13.80;99.90;;;;;;5083011;28;20651;-91
2022/08/21 05:17:17;;;;;;;4.70;4.30;;;13.90;99.90;;;;;;5081037;28;20672;-91
2022/08/21 05:19:45;;;;;;;3.57;3.27;;;13.90;99.90;;;;;;5084077;28;21063;-90
2022/08/21 05:22:20;;;;;;;4.93;3.30;;;14.00;99.90;;;;;;5083510;28;20720;-91
2022/08/21 05:24:47;;;;;;;7.17;4.07;;;14.00;99.90;;;;;;5077512;28;20621;-91
2022/08/21 05:27:14;;;;;;;4.40;4.10;;;14.00;99.90;;;;;;5085083;28;20721;-92
2022/08/21 05:29:41;;;;;;;3.77;3.37;;;14.10;99.90;;;;;;5080317;28;20635;-92
2022/08/21 05:32:10;;;;;;;3.77;3.57;;;14.20;99.90;;;;;;5088005;28;20646;-91
2022/08/21 05:34:39;;;;;;;4.57;4.13;;;14.20;99.90;;;;;;5083329;28;20624;-92
2022/08/21 05:37:06;;;;;;;4.70;4.27;;;14.30;99.90;;;;;;5082205;28;20690;-92
2022/08/21 05:39:34;;;;;;;3.30;3.10;;;14.40;99.90;;;;;;5087806;28;20640;-91
2022/08/21 05:42:01;;;;;;;3.20;3.00;;;14.50;99.90;;;;;;5087589;28;20786;-91
2022/08/21 05:44:28;;;;;;;3.87;3.47;;;14.80;99.90;;;;;;5087771;28;20731;-92
2022/08/21 05:46:55;;;;;;;4.47;4.07;;;14.90;99.90;;;;;;5084410;28;20729;-92
2022/08/21 05:49:22;;;;;;;7.07;4.27;;;14.70;99.90;;;;;;5086552;28;21129;-91
2022/08/21 05:51:48;;;;;;;4.50;4.17;;;14.70;99.90;;;;;;5086912;28;20660;-92
2022/08/21 05:54:15;;;;;;;4.70;4.40;;;14.70;99.90;;;;;;5087426;28;21237;-92
2022/08/21 05:56:44;;;;;;;4.30;4.00;;;14.70;99.90;;;;;;5078094;28;20750;-92
2022/08/21 05:59:12;;;;;;;4.63;3.47;;;14.70;99.90;;;;;;5080705;28;20616;-92
2022/08/21 06:01:40;;;;;;;5.40;4.10;;;14.80;99.90;;;;;;5087200;28;20635;-92
2022/08/21 06:04:07;;;;;;;5.13;4.30;;;14.90;99.90;;;;;;5088291;28;20608;-92
2022/08/21 06:06:34;;;;;;;4.50;4.20;;;15.00;99.90;;;;;;5085309;28;21012;-92
2022/08/21 06:09:01;;;;;;;4.17;3.77;;;15.00;99.90;;;;;;5086515;28;20655;-93
2022/08/21 06:11:28;;;;;;;6.03;4.57;;;15.10;99.90;;;;;;5088804;28;20628;-93
2022/08/21 06:13:57;;;;;;;4.77;4.47;;;15.10;99.90;;;;;;5088970;28;20616;-93
2022/08/21 06:16:25;;;;;;;4.70;4.17;;;15.20;99.90;;;;;;5085348;28;20676;-93
2022/08/21 06:18:53;;;;;;;4.30;3.80;;;15.20;99.90;;;;;;5088244;28;20671;-93
2022/08/21 06:21:21;;;;;;;4.30;3.90;;;15.40;99.90;;;;;;5080312;28;20689;-93
2022/08/21 06:23:48;;;;;;;4.00;3.80;;;15.40;99.90;;;;;;5082612;28;20633;-92
2022/08/21 06:26:15;;;;;;;4.93;4.53;;;15.50;99.90;;;;;;5088545;28;20659;-91
2022/08/21 06:28:43;;;;;;;5.27;4.23;;;15.60;99.90;;;;;;5091862;28;20630;-92
2022/08/21 06:31:17;;;;;;;4.97;3.83;;;15.70;99.90;;;;;;5091747;28;20965;-90
2022/08/21 06:33:44;;;;;;;4.63;4.23;;;15.80;99.90;;;;;;5085395;28;20620;-91
2022/08/21 06:36:12;;;;;;;4.20;3.90;;;15.90;99.90;;;;;;5082923;28;20670;-92
2022/08/21 06:38:39;;;;;;;3.33;3.13;;;15.90;99.90;;;;;;5087936;28;20758;-92
2022/08/21 06:41:07;;;;;;;3.53;3.23;;;16.00;99.90;;;;;;5089924;28;21216;-91
2022/08/21 06:43:34;;;;;;;4.40;4.00;;;16.10;99.90;;;;;;5091310;28;20619;-92
2022/08/21 06:46:01;;;;;;;3.50;3.20;;;16.10;99.90;;;;;;5086260;28;20635;-92
2022/08/21 06:48:31;;;;;;;3.80;3.50;;;16.30;99.90;;;;;;5084463;28;20984;-80
2022/08/21 06:50:59;;;;;;;6.30;3.40;;;16.30;99.90;;;;;;5080702;28;21080;-80
2022/08/21 06:53:26;;;;;;;4.20;3.80;;;16.50;99.90;;;;;;5082540;28;20630;-81
2022/08/21 06:55:53;;;;;;;4.30;3.60;;;16.60;99.90;;;;;;5079325;28;20625;-81
2022/08/21 06:58:20;;;;;;;3.47;3.17;;;16.80;99.90;;;;;;5081909;28;20680;-81
2022/08/21 07:00:49;;;;;;;3.60;3.30;;;16.90;99.90;;;;;;5084223;28;21002;-81
2022/08/21 07:03:24;;;;;;;5.20;3.80;;;17.00;99.90;;;;;;5083315;28;20636;-81
2022/08/21 07:05:53;;;;;;;4.23;3.63;;;17.10;99.90;;;;;;5078006;28;20623;-82
2022/08/21 07:08:20;;;;;;;4.47;4.07;;;17.20;99.90;;;;;;5082678;28;20655;-81
2022/08/21 07:10:48;;;;;;;3.90;3.60;;;17.20;99.90;;;;;;5079546;28;20608;-81
2022/08/21 07:13:15;;;;;;;4.20;3.70;;;17.20;99.90;;;;;;5082306;28;20661;-81
2022/08/21 07:15:42;;;;;;;3.77;3.43;;;17.40;99.90;;;;;;5079283;28;20635;-81
2022/08/21 07:18:09;;;;;;;4.83;3.60;;;17.50;99.90;;;;;;5082660;28;21125;-82
2022/08/21 07:20:36;;;;;;;4.93;3.40;;;17.60;99.90;;;;;;5083648;28;20639;-81
2022/08/21 07:23:11;;;;;;;6.90;3.27;;;17.60;99.90;;;;;;5081136;28;20982;-81
2022/08/21 07:25:38;;;;;;;4.10;2.90;;;17.70;99.90;;;;;;5078894;28;20754;-81
2022/08/21 07:28:05;;;;;;;4.03;2.40;;;17.80;99.90;;;;;;5081777;28;20668;-81
2022/08/21 07:30:33;;;;;;;3.40;3.00;;;18.00;99.90;;;;;;5078948;28;20630;-81
2022/08/21 07:33:00;;;;;;;4.13;2.70;;;18.00;99.90;;;;;;5083310;28;20621;-81
2022/08/21 07:35:27;;;;;;;2.97;2.77;;;18.10;99.90;;;;;;5080597;28;20642;-81
2022/08/21 07:37:54;;;;;;;3.90;3.30;;;18.20;99.90;;;;;;5079708;28;20738;-81
2022/08/21 07:40:22;;;;;;;4.30;2.73;;;18.30;99.90;;;;;;5084497;28;20636;-81
2022/08/21 07:42:51;;;;;;;4.23;3.57;;;18.50;99.90;;;;;;5078843;28;20749;-81
2022/08/21 07:45:20;;;;;;;3.67;3.37;;;18.60;99.90;;;;;;5087172;28;20971;-80
2022/08/21 07:47:47;;;;;;;5.63;3.10;;;18.70;99.90;;;;;;5077360;28;20660;-81
2022/08/21 07:50:15;;;;;;;4.93;3.43;;;18.80;99.90;;;;;;5079352;28;21253;-80
2022/08/21 07:52:43;;;;;;;4.60;3.20;;;18.80;99.90;;;;;;5079854;28;21146;-81
2022/08/21 07:55:12;;;;;;;3.93;3.40;;;18.90;99.90;;;;;;5080026;28;21025;-81
2022/08/21 07:57:40;;;;;;;5.73;3.53;;;19.00;99.90;;;;;;5079044;28;21103;-81
2022/08/21 08:00:10;;;;;;;6.03;3.63;;;19.20;99.90;;;;;;5081341;28;21178;-81
2022/08/21 08:02:37;;;;;;;5.77;2.80;;;19.30;99.90;;;;;;5080881;28;20685;-80
2022/08/21 08:05:06;;;;;;;3.23;2.93;;;19.40;99.90;;;;;;5079875;28;20759;-81
2022/08/21 08:07:33;;;;;;;3.30;2.80;;;19.50;99.90;;;;;;5081092;28;20672;-81
2022/08/21 08:10:00;;;;;;;3.70;3.00;;;19.60;99.90;;;;;;5082651;28;20641;-80
2022/08/21 08:12:29;;;;;;;3.97;3.43;;;19.70;99.90;;;;;;5080834;28;20624;-81
2022/08/21 08:14:57;;;;;;;6.27;3.10;;;19.90;99.90;;;;;;5079075;28;20633;-81
2022/08/21 08:17:25;;;;;;;4.70;3.10;;;20.00;99.90;;;;;;5078484;28;20767;-81
2022/08/21 08:19:52;;;;;;;5.07;4.70;;;20.10;99.90;;;;;;5080748;28;20719;-81
2022/08/21 08:22:21;;;;;;;4.30;3.30;;;20.10;99.90;;;;;;5083717;28;20623;-80
2022/08/21 08:24:49;;;;;;;4.20;2.80;;;20.30;99.90;;;;;;5078023;28;20629;-81
2022/08/21 08:27:16;;;;;;;4.67;3.37;;;20.40;99.90;;;;;;5079966;28;20660;-80
2022/08/21 08:29:43;;;;;;;4.47;3.80;;;20.50;99.90;;;;;;5081645;28;20628;-81
2022/08/21 08:32:12;;;;;;;5.33;3.73;;;20.60;99.90;;;;;;5082088;28;20620;-81
2022/08/21 08:34:40;;;;;;;5.67;3.33;;;20.70;99.90;;;;;;5081164;28;20628;-81
2022/08/21 08:37:09;;;;;;;5.40;4.10;;;20.70;99.90;;;;;;5080848;28;20672;-81
2022/08/21 08:39:36;;;;;;;3.83;3.53;;;20.80;99.90;;;;;;5080794;28;20671;-80
2022/08/21 08:42:09;;;;;;;7.60;3.90;;;20.90;99.90;;;;;;5079020;28;20660;-80
2022/08/21 08:44:36;;;;;;;4.83;3.70;;;21.00;99.90;;;;;;5075780;28;20755;-80
2022/08/21 08:47:05;;;;;;;5.50;3.50;;;21.10;99.90;;;;;;5078240;28;21029;-80
2022/08/21 08:49:41;;;;;;;3.73;3.27;;;21.20;99.90;;;;;;5084559;28;21306;-80
2022/08/21 08:52:20;;;;;;;5.37;3.00;;;21.20;99.90;;;;;;5077764;28;20947;-80
2022/08/21 08:54:52;;;;;;;3.50;3.20;;;21.40;99.90;;;;;;5079667;28;20613;-80
2022/08/21 08:57:21;;;;;;;4.63;3.57;;;21.50;99.90;;;;;;5076510;28;20680;-80
2022/08/21 08:59:51;;;;;;;8.00;4.10;;;21.60;99.90;;;;;;5079372;28;20621;-80
2022/08/21 09:02:19;;;;;;;5.10;3.73;;;21.70;99.90;;;;;;5080245;28;20834;-80
2022/08/21 09:04:49;;;;;;;6.47;3.60;;;21.80;99.90;;;;;;5079937;28;21421;-80
2022/08/21 09:07:23;;;;;;;5.10;4.70;;;21.90;99.90;;;;;;5083881;28;21460;-80
2022/08/21 09:10:11;;;;;;;4.33;3.80;;;21.90;99.90;;;;;;5078136;28;20632;-80
2022/08/21 09:12:49;;;;;;;5.93;3.63;;;22.10;99.90;;;;;;5079141;28;20636;-81
2022/08/21 09:15:24;;;;;;;5.63;3.30;;;22.30;99.90;;;;;;5079493;28;20627;-80
2022/08/21 09:18:12;;;;;;;4.90;3.60;;;22.40;99.90;;;;;;5073970;28;20685;-80
2022/08/21 09:20:49;;;;;;;4.77;3.83;;;22.50;99.90;;;;;;5080132;28;20637;-80
2022/08/21 09:23:26;;;;;;;4.53;3.37;;;22.60;99.90;;;;;;5082725;28;20727;-80
2022/08/21 09:25:59;;;;;;;5.47;3.63;;;22.70;99.90;;;;;;5074965;28;20624;-80
2022/08/21 09:28:26;;;;;;;7.60;3.80;;;22.80;99.90;;;;;;5080418;28;20646;-81
2022/08/21 09:30:57;;;;;;;4.93;3.10;;;22.80;99.90;;;;;;5075946;28;21003;-80
2022/08/21 09:33:24;;;;;;;4.17;3.43;;;22.90;99.90;;;;;;5083313;28;20636;-80
2022/08/21 09:35:57;;;;;;;7.90;3.60;;;23.00;99.90;;;;;;5075203;28;20616;-80
2022/08/21 09:38:32;;;;;;;4.40;3.57;;;23.10;99.90;;;;;;5079253;28;20682;-80
2022/08/21 09:41:02;;;;;;;4.83;2.90;;;23.10;99.90;;;;;;5080823;28;20629;-80
2022/08/21 09:43:29;;;;;;;3.70;3.40;;;23.30;99.90;;;;;;5079511;28;20992;-80
2022/08/21 09:46:06;;;;;;;5.50;3.23;;;23.40;99.90;;;;;;5080257;28;21324;-80
2022/08/21 09:48:41;;;;;;;3.80;3.27;;;23.60;99.90;;;;;;5078500;28;20998;-82
2022/08/21 09:51:12;;;;;;;5.70;3.53;;;23.70;99.90;;;;;;5078489;28;20612;-80
2022/08/21 09:53:44;;;;;;;4.27;3.53;;;23.70;99.90;;;;;;5081499;28;20620;-80
2022/08/21 09:59:01;;;;;;;7.33;3.87;;;23.90;99.90;;;;;;5074068;28;20676;-79
2022/08/21 10:01:28;;;;;;;6.40;4.47;;;24.00;99.90;;;;;;5084377;28;21017;-80
2022/08/21 10:04:04;;;;;;;6.87;4.07;;;23.90;99.90;;;;;;5081466;28;20632;-79
2022/08/21 10:06:34;;;;;;;5.33;3.40;;;24.10;99.90;;;;;;5083676;28;20636;-79
2022/08/21 10:09:07;;;;;;;7.70;4.80;;;24.10;99.90;;;;;;5082751;28;21064;-79
2022/08/21 10:11:35;;;;;;;8.10;4.03;;;24.20;99.90;;;;;;5082006;28;20651;-81
2022/08/21 10:14:11;;;;;;;4.30;3.50;;;24.30;97.90;;;;;;5085620;28;20628;-81
2022/08/21 10:16:48;;;;;;;3.97;3.63;;;24.30;98.50;;;;;;5081414;28;20624;-81
2022/08/21 10:19:26;;;;;;;6.17;3.43;;;24.40;99.00;;;;;;5082835;28;20762;-79
2022/08/21 10:22:03;;;;;;;5.40;3.40;;;24.60;98.00;;;;;;5079898;28;20621;-80
2022/08/21 10:24:34;;;;;;;6.17;3.27;;;24.70;97.00;;;;;;5080479;28;20624;-80
2022/08/21 10:27:16;;;;;;;4.83;3.27;;;24.80;95.30;;;;;;5082488;28;20639;-80
2022/08/21 10:29:52;;;;;;;6.00;4.20;;;24.80;96.00;;;;;;5082546;28;20623;-80
2022/08/21 10:32:33;;;;;;;5.07;3.80;;;24.80;96.70;;;;;;5081017;28;21217;-79
2022/08/21 10:35:08;;;;;;;5.47;3.47;;;24.80;96.60;;;;;;5077271;28;20631;-81
2022/08/21 10:37:48;;;;;;;5.00;3.50;;;24.90;94.40;;;;;;5084229;28;20768;-80
2022/08/21 10:40:22;;;;;;;3.67;3.23;;;25.10;92.50;;;;;;5083996;28;20620;-80
2022/08/21 10:43:00;;;;;;;4.30;3.00;;;25.40;88.70;;;;;;5080053;28;20612;-79
2022/08/21 10:45:39;;;;;;;4.30;3.90;;;25.30;86.80;;;;;;5082476;28;20627;-80
2022/08/21 10:48:08;;;;;;;4.67;3.20;;;25.30;86.60;;;;;;5084051;28;21248;-80
2022/08/21 10:50:42;;;;;;;6.50;3.30;;;25.20;86.40;;;;;;5080102;28;20639;-80
2022/08/21 10:53:38;;;;;;;8.53;4.83;;;25.30;90.10;;;;;;5085392;28;20635;-80
2022/08/21 10:56:16;;;;;;;7.67;3.47;;;25.40;89.20;;;;;;5080998;28;21027;-80
2022/08/21 10:58:50;;;;;;;4.93;3.80;;;25.70;81.20;;;;;;5082294;28;20698;-79
2022/08/21 11:01:22;;;;;;;4.13;3.37;;;26.00;86.40;;;;;;5082355;28;20952;-79
2022/08/21 11:03:55;;;;;;;5.90;3.60;;;26.20;83.60;;;;;;5079047;28;20620;-80
2022/08/21 11:06:25;;;;;;;5.17;3.80;;;26.50;79.70;;;;;;5079210;28;20627;-80
2022/08/21 11:08:59;;;;;;;4.73;3.80;;;26.70;77.30;;;;;;5079615;28;20651;-79
2022/08/21 11:11:30;;;;;;;5.10;4.40;;;26.90;76.10;;;;;;5082147;28;20639;-79
2022/08/21 11:14:01;;;;;;;4.90;3.10;;;27.10;71.30;;;;;;5085500;28;20640;-80
2022/08/21 11:16:37;;;;;;;4.30;3.27;;;27.30;73.80;;;;;;5080512;28;20619;-80
2022/08/21 11:19:09;;;;;;;8.03;3.63;;;27.70;68.80;;;;;;5083294;28;20686;-80
2022/08/21 11:21:42;;;;;;;5.97;4.13;;;28.00;65.20;;;;;;5083158;28;20635;-80
2022/08/21 11:24:29;;;;;;;5.33;3.87;;;28.30;62.90;;;;;;5081044;28;20620;-80
2022/08/21 11:27:02;;;;;;;3.70;3.33;;;28.50;61.40;;;;;;5082512;28;20639;-80
2022/08/21 11:29:31;;;;;;;5.40;3.73;;;28.70;61.90;;;;;;5084523;28;20624;-80
2022/08/21 11:32:14;;;;;;;5.87;3.73;;;29.00;59.60;;;;;;5078930;28;20624;-80
2022/08/21 11:34:57;;;;;;;6.30;3.40;;;29.30;59.20;;;;;;5078827;28;20620;-80
2022/08/21 11:37:42;;;;;;;4.10;3.70;;;29.60;57.60;;;;;;5078448;28;20803;-80
2022/08/21 11:40:18;;;;;;;5.40;3.70;;;29.70;58.60;;;;;;5083778;28;20971;-81
2022/08/21 11:42:55;;;;;;;5.87;4.57;;;29.70;57.70;;;;;;5082139;28;20635;-80
2022/08/21 11:45:31;;;;;;;4.67;4.27;;;29.70;59.60;;;;;;5078807;28;20624;-80
2022/08/21 11:48:08;;;;;;;9.23;4.33;;;29.90;58.70;;;;;;5081414;28;20651;-80
2022/08/21 11:50:38;;;;;;;6.67;3.40;;;29.90;55.60;;;;;;5079745;28;20611;-80
2022/08/21 11:53:10;;;;;;;4.77;3.43;;;29.90;54.70;;;;;;5083991;28;21191;-80
2022/08/21 11:55:44;;;;;;;3.87;3.50;;;29.80;53.70;;;;;;5077987;28;20624;-80
2022/08/21 11:58:20;;;;;;;4.50;3.80;;;30.10;55.20;;;;;;5077520;28;20683;-80
2022/08/21 12:00:51;;;;;;;3.33;3.07;;;30.50;53.60;;;;;;5083266;28;20620;-80
2022/08/21 12:03:31;;;;;;;3.63;3.33;;;30.90;53.30;;;;;;5082072;28;20722;-80
2022/08/21 12:06:02;;;;;;;3.50;3.20;;;31.50;52.90;;;;;;5077499;28;20653;-81
2022/08/21 12:08:31;;;;;;;3.53;2.73;;;32.00;53.30;;;;;;5080508;28;20656;-81
2022/08/21 12:11:06;;;;;;;7.67;3.50;;;32.50;52.10;;;;;;5083213;28;20675;-80
2022/08/21 12:13:37;;;;;;;3.80;3.30;;;32.90;51.20;;;;;;5080031;28;20687;-80
2022/08/21 12:16:09;;;;;;;3.47;3.07;;;33.30;50.00;;;;;;5082865;28;21146;-80
2022/08/21 12:18:37;;;;;;;3.53;3.10;;;33.70;49.00;;;;;;5074915;28;20710;-82
2022/08/21 12:21:20;;;;;;;5.60;3.67;;;33.90;47.10;;;;;;5080901;28;20630;-81
2022/08/21 12:23:59;;;;;;;4.37;3.73;;;33.80;45.40;;;;;;5078740;28;20620;-81
2022/08/21 12:26:33;;;;;;;5.80;3.80;;;33.70;45.60;;;;;;5077251;28;20615;-80
2022/08/21 12:29:14;;;;;;;3.80;3.50;;;33.70;45.10;;;;;;5079191;28;21264;-81
2022/08/21 12:31:55;;;;;;;4.60;3.00;;;33.80;44.90;;;;;;5077432;28;20642;-81
2022/08/21 12:34:27;;;;;;;4.83;2.80;;;34.00;44.60;;;;;;5078882;28;20627;-81
2022/08/21 12:36:59;;;;;;;3.57;3.27;;;34.40;45.20;;;;;;5077580;28;20991;-81
2022/08/21 12:39:29;;;;;;;6.17;3.00;;;34.60;42.30;;;;;;5080752;28;20644;-80
2022/08/21 12:42:05;;;;;;;3.90;3.50;;;34.00;41.80;;;;;;5078762;28;21153;-81
2022/08/21 12:44:39;;;;;;;3.13;2.83;;;34.10;44.10;;;;;;5079088;28;20627;-81
2022/08/21 12:47:13;;;;;;;3.90;3.17;;;34.50;42.10;;;;;;5084035;28;20654;-80
2022/08/21 12:49:51;;;;;;;3.87;3.43;;;34.70;41.40;;;;;;5078361;28;20607;-80
2022/08/21 12:52:22;;;;;;;3.37;3.07;;;35.20;40.60;;;;;;5080170;28;20205;-81
2022/08/21 12:54:49;;;;;;;3.67;3.37;;;35.20;38.90;;;;;;5079485;28;20668;-80
2022/08/21 12:57:24;;;;;;;4.40;2.70;;;35.00;38.80;;;;;;5081064;28;20225;-81
2022/08/21 12:59:56;;;;;;;3.60;3.30;;;34.80;38.70;;;;;;5078512;28;20221;-81
2022/08/21 13:02:27;;;;;;;3.27;2.97;;;34.80;38.50;;;;;;5081663;28;20210;-81
2022/08/21 13:04:56;;;;;;;7.40;3.80;;;34.50;38.40;;;;;;5077699;28;20213;-79